Nimbus Weather Services

Informe meteorológico para Carrasco, Uruguay. El informe se hizo hace 8 minutos, a las 15:30 UTC. El viento soplaba a una velocidad de 8.7 m/s (19.6 millas por hora) con ráfagas de 13.9 m/s (31.1 millas por hora) del oeste-suroeste (250°). La temperatura era 20 °C (68 °F), con un punto de rocío de 19 °C (66 °F). La presión atmosférica era 997 hPa (29.44 inHg). Había una humedad relativa del 94.0%. Cielo: nubosidad discontinua a una altitud de 183 metros (600 pies). Cielo nublado a partir de los 457 metros (1500 pies) En aquel momento la visibilidad global era 3000 metros (9843 pies). Actualmente lluvia leve.

La clave METAR es: SUMU 291530Z 25017G27KT 3000 -RABR BKN006 OVC015 20/19 Q0997 NOSIG

Consulta realizada el Lunes 29 de Noviembre de 2021 12:37. Tiempo usado para generar esta pagina:15,517 ms.